createdAt,value
2023-04-10T00:01:19.795Z,18.00
2023-04-10T00:04:24.836Z,25.30
2023-04-10T00:07:27.827Z,19.20
2023-04-10T00:10:33.451Z,18.73
2023-04-10T00:16:41.055Z,19.37
2023-04-10T00:19:43.993Z,19.55
2023-04-10T00:22:47.157Z,19.50
2023-04-10T00:25:50.115Z,20.10
2023-04-10T00:28:53.319Z,16.12
2023-04-10T00:31:56.315Z,18.87
2023-04-10T00:34:59.665Z,21.35
2023-04-10T00:38:02.618Z,19.92
2023-04-10T00:41:06.579Z,19.15
2023-04-10T00:44:09.430Z,21.65
2023-04-10T00:47:14.309Z,20.77
2023-04-10T00:50:18.495Z,20.83
2023-04-10T00:53:22.211Z,23.60
2023-04-10T00:56:25.593Z,20.90
2023-04-10T00:59:29.253Z,23.35
2023-04-10T01:02:32.433Z,18.15
2023-04-10T01:05:46.694Z,20.77
2023-04-10T01:09:01.493Z,23.95
2023-04-10T01:12:56.475Z,20.25
2023-04-10T01:16:37.028Z,19.83
2023-04-10T01:20:02.350Z,22.23
2023-04-10T01:23:32.887Z,20.48
2023-04-10T01:26:55.118Z,19.92
2023-04-10T01:30:00.732Z,22.23
2023-04-10T01:33:06.686Z,26.65
2023-04-10T01:36:10.365Z,25.17
2023-04-10T01:39:15.010Z,25.83
2023-04-10T01:42:20.104Z,25.85
2023-04-10T01:48:30.593Z,22.67
2023-04-10T01:51:34.747Z,19.45
2023-04-10T01:54:39.116Z,26.93
2023-04-10T01:57:42.510Z,23.12
2023-04-10T02:00:45.783Z,23.30
2023-04-10T02:03:49.632Z,24.52
2023-04-10T02:07:04.882Z,32.90
2023-04-10T02:10:21.612Z,23.98
2023-04-10T02:13:26.851Z,24.75
2023-04-10T02:16:31.248Z,22.85
2023-04-10T02:19:34.823Z,24.00
2023-04-10T02:22:38.074Z,23.27
2023-04-10T02:25:42.113Z,22.13
2023-04-10T02:28:46.028Z,24.75
2023-04-10T02:31:49.253Z,23.70
2023-04-10T02:34:52.401Z,30.10
2023-04-10T02:37:55.658Z,24.52
2023-04-10T02:40:58.893Z,23.65
2023-04-10T02:44:01.975Z,29.02
2023-04-10T02:47:07.294Z,24.48
2023-04-10T02:50:12.172Z,26.42
2023-04-10T02:53:17.454Z,25.85
2023-04-10T02:56:20.962Z,25.50
2023-04-10T02:59:24.437Z,26.67
2023-04-10T03:02:28.071Z,30.45
2023-04-10T03:05:32.842Z,26.15
2023-04-10T03:08:35.813Z,26.52
2023-04-10T03:11:39.073Z,26.45
2023-04-10T03:14:42.100Z,27.65
2023-04-10T03:17:46.926Z,27.98
2023-04-10T03:20:52.371Z,29.93
2023-04-10T03:23:56.482Z,26.83
2023-04-10T03:26:59.514Z,25.60
2023-04-10T03:30:05.929Z,27.08
2023-04-10T03:33:14.874Z,27.45
2023-04-10T03:36:18.350Z,25.85
2023-04-10T03:39:26.310Z,26.40
2023-04-10T03:42:29.679Z,28.33
2023-04-10T03:45:34.690Z,31.42
2023-04-10T03:48:39.347Z,29.00
2023-04-10T03:51:42.217Z,29.33
2023-04-10T03:54:45.642Z,31.10
2023-04-10T03:57:53.848Z,30.33
2023-04-10T04:00:57.626Z,26.80
2023-04-10T04:04:01.758Z,29.30
2023-04-10T04:07:11.352Z,34.65
2023-04-10T04:10:16.513Z,30.23
2023-04-10T04:13:24.547Z,34.60
2023-04-10T04:16:29.383Z,30.55
2023-04-10T04:19:32.375Z,30.33
2023-04-10T04:22:37.045Z,33.10
2023-04-10T04:25:40.943Z,32.97
2023-04-10T04:28:44.579Z,30.70
2023-04-10T04:31:48.754Z,28.60
2023-04-10T04:34:52.287Z,31.60
2023-04-10T04:37:55.762Z,35.63
2023-04-10T04:40:59.664Z,34.42
2023-04-10T04:44:05.552Z,30.77
2023-04-10T04:47:09.214Z,30.42
2023-04-10T04:50:12.678Z,32.63
2023-04-10T04:53:16.717Z,30.25
2023-04-10T04:56:19.978Z,30.70
2023-04-10T04:59:23.716Z,33.05
2023-04-10T05:02:28.568Z,34.35
2023-04-10T05:05:33.452Z,30.37
2023-04-10T05:08:38.649Z,32.33
2023-04-10T05:11:42.003Z,32.55
2023-04-10T05:14:47.484Z,31.02
2023-04-10T05:17:53.550Z,32.58
2023-04-10T05:21:01.932Z,29.73
2023-04-10T05:24:07.215Z,28.70
2023-04-10T05:27:12.261Z,28.90
2023-04-10T05:30:18.503Z,30.42
2023-04-10T05:33:21.562Z,30.30
2023-04-10T05:39:31.611Z,29.48
2023-04-10T05:42:36.082Z,31.92
2023-04-10T05:45:39.065Z,29.55
2023-04-10T05:48:42.527Z,29.50
2023-04-10T05:51:50.380Z,31.92
2023-04-10T05:54:53.713Z,38.85
2023-04-10T05:57:56.900Z,45.38
2023-04-10T06:01:00.350Z,37.13
2023-04-10T06:04:05.184Z,34.50
2023-04-10T06:07:09.165Z,42.95
2023-04-10T06:10:12.497Z,41.80
2023-04-10T06:13:15.679Z,42.10
2023-04-10T06:16:19.044Z,43.70
2023-04-10T06:19:22.074Z,40.80
2023-04-10T06:22:27.195Z,38.95
2023-04-10T06:25:30.135Z,36.78
2023-04-10T06:28:34.993Z,39.28
2023-04-10T06:31:39.968Z,36.58
2023-04-10T06:34:47.958Z,33.72
2023-04-10T06:37:51.997Z,28.98
2023-04-10T06:40:56.664Z,32.38
2023-04-10T06:44:01.761Z,34.65
2023-04-10T06:47:09.299Z,33.15
2023-04-10T06:50:13.546Z,36.97
2023-04-10T06:53:17.005Z,31.03
2023-04-10T06:56:21.252Z,34.08
2023-04-10T06:59:24.495Z,30.83
2023-04-10T07:02:27.601Z,30.92
2023-04-10T07:05:31.019Z,32.40
2023-04-10T07:08:34.154Z,36.85
2023-04-10T07:11:37.340Z,31.45
2023-04-10T07:14:40.329Z,34.17
2023-04-10T07:17:44.075Z,31.12
2023-04-10T07:20:47.077Z,31.25
2023-04-10T07:23:50.272Z,32.13
2023-04-10T07:26:53.217Z,30.75
2023-04-10T07:29:57.166Z,33.10
2023-04-10T07:33:01.740Z,30.70
2023-04-10T07:36:07.108Z,30.25
2023-04-10T07:39:10.029Z,26.42
2023-04-10T07:42:14.682Z,28.67
2023-04-10T07:45:17.546Z,27.37
2023-04-10T07:48:20.756Z,28.83
2023-04-10T07:51:23.890Z,25.10
2023-04-10T07:54:27.136Z,23.20
2023-04-10T07:57:30.668Z,27.02
2023-04-10T08:00:34.533Z,27.80
2023-04-10T08:03:41.979Z,26.10
2023-04-10T08:06:44.908Z,28.65
2023-04-10T08:09:48.384Z,30.23
2023-04-10T08:12:51.338Z,28.27
2023-04-10T08:15:54.544Z,27.60
2023-04-10T08:18:58.166Z,28.73
2023-04-10T08:22:01.443Z,32.58
2023-04-10T08:25:06.321Z,31.42
2023-04-10T08:28:09.560Z,27.67
2023-04-10T08:31:14.709Z,26.30
2023-04-10T08:34:19.316Z,26.83
2023-04-10T08:37:22.306Z,27.08
2023-04-10T08:40:25.671Z,24.58
2023-04-10T08:43:28.912Z,24.10
2023-04-10T08:46:33.934Z,22.20
2023-04-10T08:49:39.341Z,23.92
2023-04-10T08:52:44.119Z,25.10
2023-04-10T08:55:47.211Z,23.57
2023-04-10T08:58:52.173Z,21.80
2023-04-10T09:01:55.269Z,20.20
2023-04-10T09:05:00.587Z,21.70
2023-04-10T09:08:08.100Z,24.70
2023-04-10T09:11:13.463Z,23.20
2023-04-10T09:14:23.073Z,27.70
2023-04-10T09:17:26.326Z,24.85
2023-04-10T09:20:32.685Z,23.23
2023-04-10T09:23:35.804Z,22.80
2023-04-10T09:26:38.668Z,23.05
2023-04-10T09:29:49.202Z,21.60
2023-04-10T09:32:52.322Z,19.65
2023-04-10T09:35:58.181Z,24.58
2023-04-10T09:39:01.046Z,21.60
2023-04-10T09:42:04.726Z,21.37
2023-04-10T09:45:07.843Z,22.62
2023-04-10T09:48:11.348Z,18.70
2023-04-10T09:51:31.755Z,15.13
2023-04-10T09:54:38.256Z,15.07
2023-04-10T09:57:41.290Z,19.17
2023-04-10T10:00:49.574Z,21.40
2023-04-10T10:03:57.290Z,20.83
2023-04-10T10:07:01.671Z,22.23
2023-04-10T10:10:07.446Z,19.62
2023-04-10T10:13:11.346Z,15.23
2023-04-10T10:16:32.565Z,13.53
2023-04-10T10:19:46.406Z,15.68
2023-04-10T10:22:50.841Z,13.15
2023-04-10T10:25:54.619Z,12.90
2023-04-10T10:28:58.580Z,11.80
2023-04-10T10:32:03.164Z,9.10
2023-04-10T10:35:08.091Z,11.52
2023-04-10T10:38:11.258Z,11.75
2023-04-10T10:41:21.425Z,11.70
2023-04-10T10:44:32.293Z,12.95
2023-04-10T10:47:50.142Z,12.52
2023-04-10T10:51:02.885Z,14.25
2023-04-10T10:54:35.080Z,16.90
2023-04-10T10:57:48.530Z,16.52
2023-04-10T11:00:52.697Z,15.55
2023-04-10T11:03:56.036Z,13.40
2023-04-10T11:07:00.662Z,13.15
2023-04-10T11:10:03.677Z,12.80
2023-04-10T11:13:16.275Z,13.98
2023-04-10T11:16:24.734Z,12.07
2023-04-10T11:19:28.428Z,10.48
2023-04-10T11:22:31.489Z,13.18
2023-04-10T11:25:52.572Z,12.60
2023-04-10T11:28:55.866Z,9.18
2023-04-10T11:32:01.541Z,9.35
2023-04-10T11:35:05.272Z,9.85
2023-04-10T11:38:13.982Z,9.85
2023-04-10T11:41:16.961Z,9.23
2023-04-10T11:44:27.765Z,10.38
2023-04-10T11:47:31.080Z,8.40
2023-04-10T11:50:36.315Z,9.55
2023-04-10T11:53:40.098Z,10.30
2023-04-10T11:56:44.951Z,8.10
2023-04-10T11:59:50.723Z,8.95
2023-04-10T12:02:54.295Z,7.82
2023-04-10T12:05:57.844Z,8.57
2023-04-10T12:09:00.702Z,7.20
2023-04-10T12:12:05.722Z,8.32
2023-04-10T12:15:28.779Z,7.72
2023-04-10T12:18:32.447Z,9.02
2023-04-10T12:21:40.085Z,8.05
2023-04-10T12:24:47.868Z,6.32
2023-04-10T12:27:51.801Z,8.50
2023-04-10T12:30:55.234Z,6.80
2023-04-10T12:33:59.179Z,9.45
2023-04-10T12:37:03.053Z,8.82
2023-04-10T12:40:07.504Z,7.25
2023-04-10T12:43:10.812Z,7.03
2023-04-10T12:46:24.424Z,7.75
2023-04-10T12:49:27.743Z,6.70
2023-04-10T12:52:30.668Z,8.23
2023-04-10T12:55:33.927Z,8.23
2023-04-10T12:58:37.163Z,7.25
2023-04-10T13:01:40.661Z,6.87
2023-04-10T13:04:43.805Z,7.90
2023-04-10T13:07:47.378Z,7.83
2023-04-10T13:10:50.654Z,9.02
2023-04-10T13:13:53.876Z,7.97
2023-04-10T13:16:57.630Z,6.40
2023-04-10T13:20:00.962Z,7.22
2023-04-10T13:23:04.599Z,7.80
2023-04-10T13:26:07.756Z,7.57
2023-04-10T13:29:10.793Z,6.60
2023-04-10T13:32:13.957Z,8.50
2023-04-10T13:35:16.886Z,7.07
2023-04-10T13:38:21.407Z,9.88
2023-04-10T13:41:24.772Z,5.53
2023-04-10T13:44:28.454Z,5.63
2023-04-10T13:47:31.424Z,5.67
2023-04-10T13:50:34.630Z,5.57
2023-04-10T13:53:37.597Z,5.55
2023-04-10T13:56:41.420Z,5.85
2023-04-10T13:59:45.769Z,5.95
2023-04-10T14:02:49.214Z,8.25
2023-04-10T14:05:53.010Z,6.03
2023-04-10T14:08:56.177Z,7.37
2023-04-10T14:11:59.586Z,6.53
2023-04-10T14:15:02.550Z,5.90
2023-04-10T14:18:05.826Z,5.97
2023-04-10T14:21:08.862Z,6.35
2023-04-10T14:24:12.188Z,5.80
2023-04-10T14:27:15.227Z,6.37
2023-04-10T14:30:19.001Z,7.37
2023-04-10T14:33:22.001Z,6.25
2023-04-10T14:36:25.644Z,6.35
2023-04-10T14:39:28.720Z,6.45
2023-04-10T14:42:33.088Z,5.85
2023-04-10T14:45:36.056Z,7.05
2023-04-10T14:48:40.560Z,7.05
2023-04-10T14:51:44.914Z,6.47
2023-04-10T14:54:48.188Z,6.07
2023-04-10T14:57:51.148Z,6.80
2023-04-10T15:00:54.600Z,6.83
2023-04-10T15:03:57.791Z,8.63
2023-04-10T15:07:01.593Z,6.78
2023-04-10T15:10:05.147Z,7.00
2023-04-10T15:13:13.576Z,8.65
2023-04-10T15:16:17.051Z,6.55
2023-04-10T15:19:20.405Z,6.90
2023-04-10T15:22:23.267Z,8.63
2023-04-10T15:25:26.438Z,8.90
2023-04-10T15:28:29.380Z,8.75
2023-04-10T15:31:32.572Z,8.98
2023-04-10T15:34:35.631Z,7.78
2023-04-10T15:37:39.620Z,11.82
2023-04-10T15:40:42.524Z,8.38
2023-04-10T15:43:45.845Z,8.35
2023-04-10T15:46:48.812Z,9.75
2023-04-10T15:49:52.042Z,9.15
2023-04-10T15:52:54.997Z,9.50
2023-04-10T15:55:58.889Z,8.68
2023-04-10T15:59:01.834Z,9.98
2023-04-10T16:02:05.249Z,14.48
2023-04-10T16:05:09.450Z,11.90
2023-04-10T16:08:12.513Z,12.10
2023-04-10T16:11:15.786Z,10.85
2023-04-10T16:14:20.214Z,11.23
2023-04-10T16:17:23.412Z,11.00
2023-04-10T16:20:28.708Z,13.13
2023-04-10T16:23:33.134Z,12.90
2023-04-10T16:26:36.146Z,12.90
2023-04-10T16:29:39.406Z,12.70
2023-04-10T16:32:42.471Z,12.52
2023-04-10T16:35:45.723Z,11.85
2023-04-10T16:38:49.983Z,12.05
2023-04-10T16:41:53.734Z,13.02
2023-04-10T16:44:58.838Z,12.57
2023-04-10T16:48:02.254Z,10.82
2023-04-10T16:51:06.889Z,12.82
2023-04-10T16:54:10.140Z,11.45
2023-04-10T16:57:13.023Z,10.18
2023-04-10T17:00:16.703Z,11.73
2023-04-10T17:03:19.658Z,11.43
2023-04-10T17:06:22.960Z,10.43
2023-04-10T17:09:26.407Z,10.82
2023-04-10T17:12:29.746Z,12.57
2023-04-10T17:15:32.623Z,12.73
2023-04-10T17:18:36.239Z,13.52
2023-04-10T17:21:39.200Z,12.45
2023-04-10T17:24:43.765Z,13.75
2023-04-10T17:27:46.662Z,11.73
2023-04-10T17:30:49.819Z,12.18
2023-04-10T17:33:52.682Z,16.90
2023-04-10T17:36:56.447Z,11.68
2023-04-10T17:39:59.424Z,12.43
2023-04-10T17:43:02.900Z,14.02
2023-04-10T17:46:07.169Z,12.18
2023-04-10T17:49:10.518Z,12.23
2023-04-10T17:52:14.404Z,10.65
2023-04-10T17:55:20.889Z,15.27
2023-04-10T17:58:25.596Z,13.90
2023-04-10T18:01:31.752Z,14.35
2023-04-10T18:04:35.472Z,12.60
2023-04-10T18:07:39.146Z,11.73
2023-04-10T18:10:42.457Z,11.45
2023-04-10T18:13:47.564Z,11.20
2023-04-10T18:16:50.764Z,11.88
2023-04-10T18:19:56.616Z,15.85
2023-04-10T18:22:59.903Z,16.77
2023-04-10T18:26:04.373Z,11.85
2023-04-10T18:29:08.144Z,12.37
2023-04-10T18:32:11.580Z,12.55
2023-04-10T18:35:14.873Z,13.00
2023-04-10T18:38:18.676Z,13.38
2023-04-10T18:41:21.941Z,14.43
2023-04-10T18:44:25.479Z,15.57
2023-04-10T18:47:29.606Z,13.15
2023-04-10T18:50:39.074Z,13.65
2023-04-10T18:53:42.729Z,14.50
2023-04-10T18:56:46.274Z,16.08
2023-04-10T18:59:49.423Z,16.23
2023-04-10T19:02:54.456Z,15.23
2023-04-10T19:05:59.132Z,14.23
2023-04-10T19:09:02.108Z,15.32
2023-04-10T19:12:05.460Z,18.25
2023-04-10T19:15:09.458Z,14.48
2023-04-10T19:18:14.966Z,12.52
2023-04-10T19:21:19.648Z,16.23
2023-04-10T19:24:23.141Z,14.13
2023-04-10T19:27:26.971Z,14.07
2023-04-10T19:30:30.667Z,16.52
2023-04-10T19:33:34.556Z,14.82
2023-04-10T19:36:38.337Z,16.87
2023-04-10T19:39:41.586Z,15.77
2023-04-10T19:42:46.002Z,17.92
2023-04-10T19:45:49.294Z,17.40
2023-04-10T19:48:53.011Z,17.87
2023-04-10T19:51:56.785Z,18.27
2023-04-10T19:55:00.197Z,17.00
2023-04-10T19:58:03.418Z,17.05
2023-04-10T20:01:09.208Z,17.23
2023-04-10T20:04:12.975Z,20.03
2023-04-10T20:07:16.217Z,18.50
2023-04-10T20:10:20.794Z,17.60
2023-04-10T20:13:23.965Z,22.07
2023-04-10T20:16:27.443Z,20.62
2023-04-10T20:19:30.430Z,20.05
2023-04-10T20:22:33.776Z,18.65
2023-04-10T20:25:38.115Z,21.08
2023-04-10T20:28:41.337Z,20.52
2023-04-10T20:31:44.271Z,20.73
2023-04-10T20:34:47.551Z,19.83
2023-04-10T20:37:50.452Z,22.13
2023-04-10T20:40:55.524Z,21.75
2023-04-10T20:43:58.600Z,22.13
2023-04-10T20:47:02.647Z,20.83
2023-04-10T20:50:06.355Z,20.77
2023-04-10T20:53:09.610Z,22.58
2023-04-10T20:56:12.837Z,21.67
2023-04-10T20:59:16.265Z,23.85
2023-04-10T21:02:19.281Z,24.75
2023-04-10T21:05:22.936Z,26.08
2023-04-10T21:08:25.761Z,22.80
2023-04-10T21:11:28.906Z,22.70
2023-04-10T21:14:31.804Z,23.38
2023-04-10T21:17:35.131Z,26.33
2023-04-10T21:20:38.154Z,24.80
2023-04-10T21:23:43.157Z,25.40
2023-04-10T21:26:46.079Z,25.52
2023-04-10T21:29:50.454Z,25.33
2023-04-10T21:32:53.366Z,25.37
2023-04-10T21:35:56.845Z,25.48
2023-04-10T21:38:59.862Z,25.40
2023-04-10T21:42:03.102Z,27.52
2023-04-10T21:45:06.918Z,25.62
2023-04-10T21:48:10.039Z,26.10
2023-04-10T21:51:13.019Z,24.27
2023-04-10T21:54:16.232Z,21.62
2023-04-10T21:57:19.180Z,26.02
2023-04-10T22:00:23.174Z,25.02
2023-04-10T22:03:27.441Z,26.52
2023-04-10T22:06:31.624Z,25.27
2023-04-10T22:09:34.746Z,24.58
2023-04-10T22:12:38.017Z,26.45
2023-04-10T22:15:41.286Z,24.50
2023-04-10T22:18:44.288Z,26.33
2023-04-10T22:21:47.644Z,26.52
2023-04-10T22:24:50.947Z,27.02
2023-04-10T22:27:54.241Z,26.60
2023-04-10T22:30:57.222Z,24.02
2023-04-10T22:34:01.003Z,26.90
2023-04-10T22:37:03.984Z,25.83
2023-04-10T22:40:07.931Z,28.33
2023-04-10T22:43:11.388Z,25.83
2023-04-10T22:46:14.652Z,27.42
2023-04-10T22:49:18.909Z,27.17
2023-04-10T22:52:22.187Z,29.55
2023-04-10T22:55:26.052Z,25.73
2023-04-10T22:58:29.179Z,27.95
2023-04-10T23:01:32.148Z,27.15
2023-04-10T23:04:35.509Z,27.27
2023-04-10T23:07:38.366Z,29.83
2023-04-10T23:10:41.614Z,29.42
2023-04-10T23:13:44.646Z,28.75
2023-04-10T23:16:47.928Z,24.92
2023-04-10T23:19:50.873Z,27.40
2023-04-10T23:22:55.663Z,26.33
2023-04-10T23:26:00.022Z,26.67
2023-04-10T23:29:03.351Z,27.35
2023-04-10T23:32:07.985Z,28.73
2023-04-10T23:35:12.491Z,25.23
2023-04-10T23:38:15.661Z,26.85
2023-04-10T23:41:20.316Z,27.80
2023-04-10T23:44:23.824Z,27.55
2023-04-10T23:47:27.227Z,26.77
2023-04-10T23:50:30.235Z,27.45
2023-04-10T23:53:33.769Z,26.37
2023-04-10T23:56:36.695Z,27.08
2023-04-10T23:59:39.875Z,26.87
